Time;durP1;ratioP1;P1;durP2;ratioP2;P2;SDS_P1;SDS_P2;PMS_P1;PMS_P2;Temp;Humidity;BMP_temperature;BMP_pressure;BME280_temperature;BME280_humidity;BME280_pressure;Samples;Min_cycle;Max_cycle;Signal;HPM_P1;HPM_P2
2022/12/23 00:01:03;;;;;;;1.80;0.33;;;;;8.50;92980.00;;;;7389788;19;20160;-77
2022/12/23 00:03:31;;;;;;;0.33;0.30;;;;;8.50;92984.00;;;;7390417;19;20124;-76
2022/12/23 00:06:16;;;;;;;0.40;0.20;;;;;8.60;92989.00;;;;7388933;19;20167;-77
2022/12/23 00:08:45;;;;;;;0.37;0.20;;;;;8.60;92996.00;;;;7389327;19;20562;-76
2022/12/23 00:11:19;;;;;;;0.10;0.10;;;;;8.70;92977.00;;;;7389512;19;20124;-76
2022/12/23 00:16:49;;;;;;;0.10;0.10;;;;;8.90;92983.00;;;;7391152;19;20133;-75
2022/12/23 00:19:17;;;;;;;0.07;0.07;;;;;8.90;92981.00;;;;7388530;19;20649;-77
2022/12/23 00:21:50;;;;;;;0.57;0.10;;;;;9.00;92982.00;;;;7388858;19;20142;-75
2022/12/23 00:24:18;;;;;;;1.83;0.20;;;;;9.00;92981.00;;;;7389303;19;20153;-77
2022/12/23 00:26:45;;;;;;;0.23;0.20;;;;;9.10;92971.00;;;;7388795;19;20625;-77
2022/12/23 00:29:33;;;;;;;1.23;0.30;;;;;9.20;92979.00;;;;7386396;19;20156;-76
2022/12/23 00:32:07;;;;;;;0.87;0.40;;;;;9.20;92977.00;;;;7391707;19;20199;-78
2022/12/23 00:34:48;;;;;;;0.30;0.30;;;;;9.30;92969.00;;;;7387788;19;20132;-77
2022/12/23 00:37:15;;;;;;;0.20;0.20;;;;;9.30;92987.00;;;;7388304;19;20156;-77
2022/12/23 00:42:53;;;;;;;0.30;0.20;;;;;9.50;92970.00;;;;7387802;19;20150;-77
2022/12/23 00:45:27;;;;;;;0.77;0.30;;;;;9.40;92992.00;;;;7387864;19;20184;-76
2022/12/23 00:50:52;;;;;;;0.27;0.27;;;;;9.40;92995.00;;;;7388411;19;20133;-77
2022/12/23 00:53:20;;;;;;;0.20;0.20;;;;;9.50;92988.00;;;;7387403;19;20141;-76
2022/12/23 00:55:48;;;;;;;1.10;0.20;;;;;9.50;93002.00;;;;7388653;19;20128;-77
2022/12/23 00:58:22;;;;;;;1.27;0.20;;;;;9.50;93012.00;;;;7389814;19;20481;-80
2022/12/23 01:06:32;;;;;;;0.20;0.20;;;;;9.50;93022.00;;;;7386399;19;20607;-76
2022/12/23 01:09:06;;;;;;;0.10;0.10;;;;;9.50;93024.00;;;;7387410;19;20642;-76
2022/12/23 01:11:33;;;;;;;0.20;0.20;;;;;9.50;93022.00;;;;7383619;19;21650;-78
2022/12/23 01:14:00;;;;;;;0.15;0.15;;;;;9.60;93014.00;;;;7386240;19;20611;-77
2022/12/23 01:16:37;;;;;;;0.25;0.25;;;;;9.50;93010.00;;;;7392391;19;20151;-76
2022/12/23 01:19:06;;;;;;;0.75;0.30;;;;;9.70;93015.00;;;;7393588;19;20172;-76
2022/12/23 01:21:33;;;;;;;1.40;0.30;;;;;9.60;93016.00;;;;7393177;19;20146;-76
2022/12/23 01:24:07;;;;;;;0.45;0.25;;;;;9.70;93025.00;;;;7394110;19;20261;-75
2022/12/23 01:26:35;;;;;;;0.15;0.15;;;;;9.60;93039.00;;;;7393352;19;20153;-76
2022/12/23 01:29:02;;;;;;;0.55;0.20;;;;;9.50;93035.00;;;;7390368;19;20205;-78
2022/12/23 01:31:42;;;;;;;0.35;0.35;;;;;9.50;93046.00;;;;7389090;19;20153;-77
2022/12/23 01:34:10;;;;;;;0.20;0.20;;;;;9.60;93046.00;;;;7393756;19;20151;-76
2022/12/23 01:36:44;;;;;;;2.17;0.25;;;;;9.60;93055.00;;;;7393720;19;20623;-77
2022/12/23 01:39:11;;;;;;;0.40;0.13;;;;;9.50;93055.00;;;;7394597;19;20141;-78
2022/12/23 01:44:59;;;;;;;1.05;0.20;;;;;9.70;93055.00;;;;7393381;19;20148;-77
2022/12/23 01:47:32;;;;;;;0.98;0.10;;;;;9.60;93052.00;;;;7393584;19;20220;-76
2022/12/23 01:50:15;;;;;;;0.30;0.13;;;;;9.60;93055.00;;;;7391408;19;20144;-77
2022/12/23 01:53:18;;;;;;;0.38;0.10;;;;;9.60;93077.00;;;;7392821;19;20148;-77
2022/12/23 01:56:00;;;;;;;0.30;0.08;;;;;9.60;93080.00;;;;7393872;19;20496;-76
2022/12/23 01:58:45;;;;;;;0.35;0.20;;;;;9.70;93078.00;;;;7392021;19;20219;-77
2022/12/23 02:04:08;;;;;;;1.85;0.00;;;;;9.50;93094.00;;;;7391245;19;20164;-82
2022/12/23 02:09:36;;;;;;;0.03;0.03;;;;;9.60;93094.00;;;;7393084;19;20216;-79
2022/12/23 02:12:44;;;;;;;0.08;0.08;;;;;9.60;93097.00;;;;7390509;19;20630;-80
2022/12/23 02:18:45;;;;;;;0.20;0.20;;;;;9.70;93097.00;;;;7391419;19;20197;-80
2022/12/23 02:21:33;;;;;;;0.20;0.20;;;;;9.50;93100.00;;;;7389258;19;20125;-78
2022/12/23 02:24:34;;;;;;;0.20;0.20;;;;;9.60;93097.00;;;;7391685;19;20151;-79
2022/12/23 02:27:24;;;;;;;0.43;0.32;;;;;9.60;93102.00;;;;7391688;19;20149;-79
2022/12/23 02:30:30;;;;;;;0.10;0.10;;;;;9.60;93098.00;;;;7388839;19;20245;-79
2022/12/23 02:33:14;;;;;;;0.08;0.08;;;;;9.70;93105.00;;;;7390633;19;20148;-78
2022/12/23 02:36:06;;;;;;;0.15;0.15;;;;;9.60;93122.00;;;;7390931;19;20591;-81
2022/12/23 02:38:48;;;;;;;0.10;0.10;;;;;9.60;93114.00;;;;7389546;19;20638;-79
2022/12/23 02:41:52;;;;;;;0.43;0.20;;;;;9.50;93130.00;;;;7389290;19;20619;-80
2022/12/23 02:44:33;;;;;;;0.30;0.30;;;;;9.70;93123.00;;;;7388481;19;20503;-78
2022/12/23 02:47:14;;;;;;;0.32;0.10;;;;;9.60;93133.00;;;;7388788;19;20495;-81
2022/12/23 02:49:46;;;;;;;0.00;0.00;;;;;9.60;93151.00;;;;7389194;19;20148;-77
2022/12/23 02:52:25;;;;;;;0.10;0.10;;;;;9.60;93146.00;;;;7390877;19;20208;-78
2022/12/23 02:54:57;;;;;;;0.17;0.17;;;;;9.60;93141.00;;;;7390615;19;20148;-78
2022/12/23 02:57:37;;;;;;;0.00;0.00;;;;;9.70;93142.00;;;;7391369;19;20137;-78
2022/12/23 03:00:06;;;;;;;0.10;0.03;;;;;9.60;93165.00;;;;7387797;19;20153;-77
2022/12/23 03:02:42;;;;;;;0.37;0.33;;;;;9.70;93157.00;;;;7388691;19;20478;-78
2022/12/23 03:05:43;;;;;;;0.08;0.08;;;;;9.60;93176.00;;;;7390390;19;20534;-78
2022/12/23 03:08:30;;;;;;;0.00;0.00;;;;;9.70;93161.00;;;;7391285;19;20145;-78
2022/12/23 03:11:10;;;;;;;0.10;0.10;;;;;9.70;93178.00;;;;7391454;19;20121;-78
2022/12/23 03:14:08;;;;;;;0.20;0.20;;;;;9.80;93178.00;;;;7389825;19;20215;-80
2022/12/23 03:16:46;;;;;;;0.27;0.10;;;;;9.60;93202.00;;;;7389030;19;20137;-80
2022/12/23 03:19:31;;;;;;;0.00;0.00;;;;;9.70;93195.00;;;;7388325;19;20180;-79
2022/12/23 03:22:35;;;;;;;0.20;0.20;;;;;9.50;93197.00;;;;7390526;19;20593;-79
2022/12/23 03:25:22;;;;;;;0.10;0.10;;;;;9.60;93208.00;;;;7387853;19;20128;-78
2022/12/23 03:28:11;;;;;;;0.00;0.00;;;;;9.60;93203.00;;;;7386713;19;20148;-77
2022/12/23 03:30:56;;;;;;;0.60;0.20;;;;;9.50;93203.00;;;;7388089;19;20148;-78
2022/12/23 03:33:33;;;;;;;0.00;0.00;;;;;9.60;93204.00;;;;7388822;19;20132;-78
2022/12/23 03:36:40;;;;;;;0.00;0.00;;;;;9.60;93200.00;;;;7387440;19;20771;-80
2022/12/23 03:39:13;;;;;;;0.10;0.10;;;;;9.50;93200.00;;;;7385183;19;20156;-79
2022/12/23 03:42:00;;;;;;;0.00;0.00;;;;;9.30;93222.00;;;;7387064;19;20149;-78
2022/12/23 03:44:33;;;;;;;0.70;0.70;;;;;9.40;93205.00;;;;7387447;19;20148;-79
2022/12/23 03:47:32;;;;;;;0.97;0.53;;;;;9.40;93205.00;;;;7386913;19;20750;-77
2022/12/23 03:50:04;;;;;;;0.90;0.90;;;;;9.30;93215.00;;;;7387494;19;20505;-76
2022/12/23 03:52:43;;;;;;;2.13;0.90;;;;;9.30;93201.00;;;;7380708;19;20709;-77
2022/12/23 03:55:17;;;;;;;0.60;0.60;;;;;9.40;93212.00;;;;7385853;19;20152;-78
2022/12/23 03:58:20;;;;;;;0.40;0.40;;;;;9.40;93213.00;;;;7387084;19;20129;-77
2022/12/23 04:00:58;;;;;;;0.57;0.57;;;;;9.50;93212.00;;;;7384524;19;20208;-76
2022/12/23 04:04:05;;;;;;;0.50;0.50;;;;;9.30;93221.00;;;;7384725;19;20165;-77
2022/12/23 04:06:42;;;;;;;0.73;0.40;;;;;9.60;93223.00;;;;7383933;19;20152;-77
2022/12/23 04:09:18;;;;;;;0.77;0.60;;;;;9.30;93228.00;;;;7384416;19;20153;-78
2022/12/23 04:11:49;;;;;;;1.00;0.70;;;;;9.30;93215.00;;;;7383417;19;20152;-78
2022/12/23 04:14:23;;;;;;;0.40;0.40;;;;;9.30;93216.00;;;;7386363;19;20584;-80
2022/12/23 04:16:54;;;;;;;0.55;0.55;;;;;9.30;93214.00;;;;7384335;19;20153;-80
2022/12/23 04:19:28;;;;;;;0.70;0.60;;;;;9.50;93213.00;;;;7385981;19;20177;-76
2022/12/23 04:22:03;;;;;;;0.40;0.40;;;;;9.30;93207.00;;;;7381189;19;20591;-79
2022/12/23 04:24:30;;;;;;;0.40;0.40;;;;;9.30;93206.00;;;;7379366;19;20216;-78
2022/12/23 04:27:00;;;;;;;0.57;0.57;;;;;9.30;93197.00;;;;7383779;19;20146;-77
2022/12/23 04:29:47;;;;;;;0.73;0.67;;;;;9.30;93197.00;;;;7384049;19;20174;-78
2022/12/23 04:32:21;;;;;;;0.80;0.80;;;;;9.30;93199.00;;;;7382988;19;20662;-77
2022/12/23 04:34:55;;;;;;;1.60;1.10;;;;;9.20;93203.00;;;;7384212;19;20145;-77
2022/12/23 04:37:23;;;;;;;1.50;1.40;;;;;9.10;93195.00;;;;7385533;19;20192;-79
2022/12/23 04:39:50;;;;;;;1.50;1.40;;;;;9.20;93206.00;;;;7383900;19;20242;-77
2022/12/23 04:42:24;;;;;;;1.48;1.38;;;;;9.20;93203.00;;;;7383713;19;20148;-77
2022/12/23 04:44:51;;;;;;;2.00;1.50;;;;;9.20;93214.00;;;;7383911;19;20168;-79
2022/12/23 04:47:21;;;;;;;2.40;2.20;;;;;9.20;93211.00;;;;7384391;19;20152;-79
2022/12/23 04:49:58;;;;;;;2.27;1.90;;;;;9.20;93208.00;;;;7388016;19;20133;-77
2022/12/23 04:52:27;;;;;;;2.40;2.20;;;;;9.30;93207.00;;;;7389159;19;20163;-78
2022/12/23 04:54:54;;;;;;;2.00;1.80;;;;;9.30;93198.00;;;;7391676;19;20641;-79
2022/12/23 04:57:28;;;;;;;1.60;1.47;;;;;9.20;93201.00;;;;7391974;19;20148;-78
2022/12/23 04:59:56;;;;;;;1.85;1.50;;;;;9.10;93209.00;;;;7391578;19;20852;-78
2022/12/23 05:02:30;;;;;;;1.37;1.20;;;;;9.20;93209.00;;;;7391357;19;20144;-77
2022/12/23 05:05:05;;;;;;;1.40;1.30;;;;;9.10;93215.00;;;;7394574;19;20200;-80
2022/12/23 05:07:33;;;;;;;1.63;1.30;;;;;9.10;93218.00;;;;7393371;19;20142;-78
2022/12/23 05:10:00;;;;;;;1.33;1.23;;;;;9.30;93216.00;;;;7393789;19;20128;-78
2022/12/23 05:12:34;;;;;;;2.53;1.40;;;;;9.10;93220.00;;;;7390349;19;20149;-79
2022/12/23 05:15:02;;;;;;;1.57;1.20;;;;;9.20;93222.00;;;;7391530;19;20145;-78
2022/12/23 05:17:29;;;;;;;2.17;1.40;;;;;9.10;93226.00;;;;7392561;19;20159;-78
2022/12/23 05:20:04;;;;;;;1.48;1.38;;;;;9.20;93240.00;;;;7392676;19;20171;-80
2022/12/23 05:22:32;;;;;;;1.85;1.38;;;;;9.10;93236.00;;;;7391241;19;20175;-78
2022/12/23 05:24:59;;;;;;;1.92;1.30;;;;;9.30;93230.00;;;;7393768;19;20619;-80
2022/12/23 05:27:34;;;;;;;1.10;1.00;;;;;9.20;93218.00;;;;7391572;19;20633;-78
2022/12/23 05:30:09;;;;;;;1.40;1.30;;;;;9.20;93230.00;;;;7389499;19;20153;-79
2022/12/23 05:32:42;;;;;;;1.40;1.30;;;;;9.30;93225.00;;;;7389927;19;20710;-81
2022/12/23 05:35:12;;;;;;;1.63;1.40;;;;;9.20;93237.00;;;;7391736;19;20649;-78
2022/12/23 05:37:39;;;;;;;2.30;1.97;;;;;9.30;93238.00;;;;7391942;19;20189;-77
2022/12/23 05:40:14;;;;;;;1.73;1.50;;;;;9.30;93257.00;;;;7390867;19;20129;-79
2022/12/23 05:42:49;;;;;;;3.17;1.97;;;;;9.30;93237.00;;;;7384482;19;20156;-79
2022/12/23 05:45:24;;;;;;;3.47;1.70;;;;;9.30;93237.00;;;;7392404;19;20151;-81
2022/12/23 05:47:51;;;;;;;3.23;2.10;;;;;9.30;93246.00;;;;7390647;19;20132;-77
2022/12/23 05:50:18;;;;;;;3.83;1.77;;;;;9.20;93258.00;;;;7390075;19;20152;-80
2022/12/23 05:52:56;;;;;;;2.03;1.80;;;;;9.20;93257.00;;;;7390067;19;20839;-78
2022/12/23 05:55:24;;;;;;;3.92;2.22;;;;;9.30;93259.00;;;;7390347;19;20568;-78
2022/12/23 05:57:52;;;;;;;2.22;1.70;;;;;9.20;93264.00;;;;7390732;19;20149;-80
2022/12/23 06:00:26;;;;;;;2.85;1.42;;;;;9.10;93254.00;;;;7386062;19;20133;-77
2022/12/23 06:02:54;;;;;;;1.75;1.55;;;;;9.20;93265.00;;;;7389899;19;20501;-79
2022/12/23 06:05:22;;;;;;;1.40;1.27;;;;;9.30;93268.00;;;;7392267;19;20172;-78
2022/12/23 06:07:56;;;;;;;1.75;1.65;;;;;9.30;93256.00;;;;7390420;19;20131;-78
2022/12/23 06:10:23;;;;;;;1.67;1.50;;;;;9.30;93271.00;;;;7392435;19;20150;-78
2022/12/23 06:12:54;;;;;;;2.13;1.30;;;;;9.30;93285.00;;;;7390047;19;20149;-80
2022/12/23 06:15:28;;;;;;;1.65;1.33;;;;;9.30;93284.00;;;;7391043;19;20133;-80
2022/12/23 06:17:55;;;;;;;1.50;1.40;;;;;9.20;93281.00;;;;7393329;19;20125;-80
2022/12/23 06:20:23;;;;;;;1.50;1.40;;;;;9.30;93281.00;;;;7387710;19;20544;-77
2022/12/23 06:22:58;;;;;;;2.13;1.38;;;;;9.20;93285.00;;;;7390746;19;20154;-79
2022/12/23 06:25:28;;;;;;;1.38;1.10;;;;;9.20;93286.00;;;;7389855;19;20160;-79
2022/12/23 06:27:56;;;;;;;1.33;1.10;;;;;9.10;93274.00;;;;7391797;19;20179;-79
2022/12/23 06:30:38;;;;;;;0.80;0.80;;;;;9.00;93275.00;;;;7387313;19;20176;-79
2022/12/23 06:33:12;;;;;;;1.40;1.25;;;;;9.20;93279.00;;;;7390220;19;20852;-78
2022/12/23 06:35:47;;;;;;;0.80;0.70;;;;;9.20;93288.00;;;;7391221;19;20630;-79
2022/12/23 06:38:15;;;;;;;0.65;0.65;;;;;9.00;93286.00;;;;7390890;19;20148;-78
2022/12/23 06:40:42;;;;;;;1.88;0.77;;;;;9.00;93287.00;;;;7390077;19;20148;-77
2022/12/23 06:43:17;;;;;;;0.98;0.88;;;;;8.90;93293.00;;;;7389625;19;20148;-81
2022/12/23 06:45:48;;;;;;;0.77;0.77;;;;;8.90;93287.00;;;;7388880;19;20149;-78
2022/12/23 06:48:16;;;;;;;0.85;0.63;;;;;9.10;93291.00;;;;7388326;19;20153;-79
2022/12/23 06:50:58;;;;;;;1.42;0.50;;;;;9.00;93281.00;;;;7387832;19;20162;-78
2022/12/23 06:53:25;;;;;;;0.70;0.50;;;;;9.10;93293.00;;;;7386424;19;20156;-76
2022/12/23 06:56:02;;;;;;;0.57;0.52;;;;;9.00;93298.00;;;;7388131;19;20191;-76
2022/12/23 06:58:30;;;;;;;0.93;0.63;;;;;9.00;93288.00;;;;7388181;19;20145;-78
2022/12/23 07:00:58;;;;;;;1.85;0.50;;;;;9.10;93300.00;;;;7387546;19;20161;-78
2022/12/23 07:03:32;;;;;;;1.20;0.73;;;;;8.90;93308.00;;;;7390963;19;20135;-78
2022/12/23 07:06:00;;;;;;;0.40;0.40;;;;;8.90;93316.00;;;;7390729;19;20583;-77
2022/12/23 07:08:30;;;;;;;0.80;0.80;;;;;8.90;93309.00;;;;7390052;19;20514;-78
2022/12/23 07:11:08;;;;;;;3.00;0.80;;;;;8.80;93311.00;;;;7392082;19;20495;-78
2022/12/23 07:13:35;;;;;;;0.93;0.93;;;;;8.80;93316.00;;;;7386095;19;20161;-79
2022/12/23 07:16:08;;;;;;;1.43;0.90;;;;;8.90;93317.00;;;;7389094;19;20145;-80
2022/12/23 07:18:42;;;;;;;2.30;0.80;;;;;8.80;93322.00;;;;7387390;19;20191;-79
2022/12/23 07:21:10;;;;;;;0.80;0.80;;;;;8.90;93313.00;;;;7389412;19;20641;-77
2022/12/23 07:23:51;;;;;;;1.67;0.80;;;;;8.70;93311.00;;;;7387140;19;20611;-77
2022/12/23 07:26:27;;;;;;;0.70;0.68;;;;;8.70;93313.00;;;;7387892;19;20146;-77
2022/12/23 07:28:55;;;;;;;0.90;0.90;;;;;8.80;93313.00;;;;7389284;19;20129;-79
2022/12/23 07:31:23;;;;;;;0.90;0.90;;;;;8.90;93308.00;;;;7385238;19;20160;-79
2022/12/23 07:33:57;;;;;;;1.23;1.00;;;;;8.90;93312.00;;;;7383977;19;20147;-77
2022/12/23 07:36:25;;;;;;;0.87;0.80;;;;;9.00;93317.00;;;;7385869;19;20572;-76
2022/12/23 07:38:53;;;;;;;0.87;0.87;;;;;9.20;93321.00;;;;7385258;19;20153;-76
2022/12/23 07:41:29;;;;;;;0.98;0.80;;;;;8.90;93328.00;;;;7385209;19;20496;-76
2022/12/23 07:43:57;;;;;;;0.80;0.80;;;;;9.00;93315.00;;;;7384700;19;20148;-75
2022/12/23 07:46:24;;;;;;;1.50;0.73;;;;;9.00;93312.00;;;;7386227;19;20194;-75
2022/12/23 07:48:59;;;;;;;0.70;0.70;;;;;9.10;93316.00;;;;7383854;19;20127;-75
2022/12/23 07:51:28;;;;;;;0.50;0.50;;;;;9.20;93328.00;;;;7384954;19;20168;-74
2022/12/23 07:53:58;;;;;;;0.70;0.70;;;;;9.10;93323.00;;;;7384286;19;20253;-76
2022/12/23 07:56:33;;;;;;;0.70;0.60;;;;;9.10;93335.00;;;;7382352;19;20495;-76
2022/12/23 07:59:02;;;;;;;0.47;0.47;;;;;9.10;93331.00;;;;7388052;19;20125;-75
2022/12/23 08:01:30;;;;;;;0.73;0.73;;;;;9.20;93340.00;;;;7379996;19;20179;-77
2022/12/23 08:04:05;;;;;;;1.43;0.60;;;;;9.10;93342.00;;;;7383098;19;20296;-77
2022/12/23 08:06:37;;;;;;;0.60;0.60;;;;;9.30;93349.00;;;;7382399;19;20631;-78
2022/12/23 08:09:12;;;;;;;0.50;0.40;;;;;9.40;93338.00;;;;7382129;19;20272;-77
2022/12/23 08:11:41;;;;;;;0.80;0.43;;;;;9.40;93344.00;;;;7382437;19;20497;-76
2022/12/23 08:14:11;;;;;;;1.98;0.50;;;;;9.30;93337.00;;;;7381226;19;20132;-77
2022/12/23 08:16:47;;;;;;;0.50;0.50;;;;;9.50;93336.00;;;;7382357;19;20505;-77
2022/12/23 08:19:16;;;;;;;0.40;0.40;;;;;9.30;93344.00;;;;7381886;19;20172;-77
2022/12/23 08:21:47;;;;;;;0.40;0.40;;;;;9.50;93340.00;;;;7381822;19;20156;-77
2022/12/23 08:24:22;;;;;;;0.30;0.30;;;;;9.60;93335.00;;;;7381476;19;20635;-78
2022/12/23 08:26:50;;;;;;;0.25;0.25;;;;;9.60;93340.00;;;;7381648;19;20500;-78
2022/12/23 08:29:18;;;;;;;1.58;0.52;;;;;9.70;93329.00;;;;7386302;19;20144;-78
2022/12/23 08:32:03;;;;;;;0.55;0.40;;;;;9.60;93330.00;;;;7400374;19;20148;-79
2022/12/23 08:34:31;;;;;;;0.22;0.22;;;;;9.70;93328.00;;;;7395354;19;20175;-79
2022/12/23 08:37:06;;;;;;;0.30;0.30;;;;;9.80;93332.00;;;;7388997;19;20183;-79
2022/12/23 08:39:33;;;;;;;0.15;0.15;;;;;9.80;93330.00;;;;7398479;19;20628;-78
2022/12/23 08:42:01;;;;;;;0.25;0.25;;;;;9.70;93315.00;;;;7383066;19;20749;-77
2022/12/23 08:44:35;;;;;;;0.30;0.25;;;;;9.70;93326.00;;;;7381226;19;20157;-77
2022/12/23 08:47:04;;;;;;;0.20;0.20;;;;;9.80;93316.00;;;;7380331;19;20153;-77
2022/12/23 08:49:32;;;;;;;0.20;0.20;;;;;9.70;93325.00;;;;7379942;19;20149;-77
2022/12/23 08:52:08;;;;;;;0.22;0.22;;;;;9.70;93313.00;;;;7379439;19;20662;-76
2022/12/23 08:54:35;;;;;;;0.30;0.28;;;;;9.70;93317.00;;;;7382092;19;20610;-77
2022/12/23 08:57:03;;;;;;;0.20;0.20;;;;;9.70;93318.00;;;;7384469;19;20121;-79
2022/12/23 08:59:38;;;;;;;0.38;0.30;;;;;9.70;93330.00;;;;7384076;19;21128;-78
2022/12/23 09:02:07;;;;;;;1.65;0.10;;;;;9.70;93340.00;;;;7381277;19;20160;-78
2022/12/23 09:04:36;;;;;;;0.10;0.10;;;;;9.70;93338.00;;;;7384096;19;20129;-77
2022/12/23 09:07:11;;;;;;;0.35;0.20;;;;;9.80;93340.00;;;;7382967;19;20211;-77
2022/12/23 09:09:38;;;;;;;0.00;0.00;;;;;9.80;93342.00;;;;7381446;19;20148;-78
2022/12/23 09:12:06;;;;;;;0.00;0.00;;;;;9.90;93336.00;;;;7380458;19;20153;-76
2022/12/23 09:14:46;;;;;;;0.08;0.08;;;;;9.80;93341.00;;;;7377241;19;20673;-77
2022/12/23 09:17:16;;;;;;;0.20;0.20;;;;;9.70;93345.00;;;;7382982;19;20133;-77
2022/12/23 09:19:51;;;;;;;0.00;0.00;;;;;9.70;93343.00;;;;7382441;19;20153;-77
2022/12/23 09:22:19;;;;;;;0.15;0.15;;;;;9.80;93336.00;;;;7389398;19;20152;-77
2022/12/23 09:24:47;;;;;;;0.30;0.30;;;;;9.80;93336.00;;;;7388933;19;20266;-78
2022/12/23 09:27:29;;;;;;;0.08;0.08;;;;;9.70;93334.00;;;;7399494;19;20128;-78
2022/12/23 09:30:04;;;;;;;0.00;0.00;;;;;9.70;93332.00;;;;7385695;19;20173;-78
2022/12/23 09:32:44;;;;;;;0.10;0.10;;;;;9.90;93305.00;;;;7384228;19;20703;-77
2022/12/23 09:35:16;;;;;;;0.10;0.10;;;;;9.80;93314.00;;;;7386136;19;20152;-76
2022/12/23 09:37:50;;;;;;;0.20;0.10;;;;;9.90;93308.00;;;;7391758;19;20538;-77
2022/12/23 09:40:20;;;;;;;0.00;0.00;;;;;9.70;93307.00;;;;7394538;19;20489;-78
2022/12/23 09:43:21;;;;;;;0.20;0.20;;;;;9.90;93291.00;;;;7391280;19;20156;-79
2022/12/23 09:45:59;;;;;;;0.10;0.10;;;;;10.00;93288.00;;;;7391829;19;20148;-77
2022/12/23 09:48:33;;;;;;;0.10;0.10;;;;;9.90;93299.00;;;;7391288;19;20666;-78
2022/12/23 09:51:09;;;;;;;0.10;0.10;;;;;9.90;93296.00;;;;7391056;19;20133;-77
2022/12/23 09:53:59;;;;;;;0.15;0.05;;;;;10.00;93290.00;;;;7394476;19;20475;-79
2022/12/23 09:56:52;;;;;;;0.30;0.10;;;;;10.00;93298.00;;;;7389496;19;20674;-76
2022/12/23 09:59:30;;;;;;;0.10;0.10;;;;;10.00;93301.00;;;;7392313;19;20169;-77
2022/12/23 10:02:22;;;;;;;0.52;0.28;;;;;10.20;93297.00;;;;7393231;19;20133;-78
2022/12/23 10:05:03;;;;;;;0.98;0.47;;;;;10.20;93300.00;;;;7391024;19;20153;-78
2022/12/23 10:07:56;;;;;;;0.20;0.20;;;;;10.40;93304.00;;;;7388564;19;20156;-77
2022/12/23 10:10:31;;;;;;;0.50;0.20;;;;;10.30;93304.00;;;;7388985;19;20156;-77
2022/12/23 10:13:10;;;;;;;1.30;0.38;;;;;10.40;93304.00;;;;7389718;19;20133;-76
2022/12/23 10:15:46;;;;;;;0.38;0.32;;;;;10.50;93300.00;;;;7389174;19;20159;-76
2022/12/23 10:18:38;;;;;;;0.70;0.40;;;;;10.30;93294.00;;;;7389512;19;20588;-75
2022/12/23 10:21:13;;;;;;;0.40;0.40;;;;;10.20;93302.00;;;;7389468;19;20165;-76
2022/12/23 10:23:52;;;;;;;0.38;0.38;;;;;10.10;93304.00;;;;7391188;19;20125;-77
2022/12/23 10:26:35;;;;;;;0.47;0.47;;;;;10.10;93301.00;;;;7387625;19;20145;-78
2022/12/23 10:29:15;;;;;;;0.40;0.40;;;;;10.30;93294.00;;;;7391614;19;20125;-76
2022/12/23 10:32:20;;;;;;;1.95;0.55;;;;;10.20;93285.00;;;;7387414;19;20152;-77
2022/12/23 10:35:08;;;;;;;1.38;0.47;;;;;10.30;93294.00;;;;7389891;19;20134;-79
2022/12/23 10:38:01;;;;;;;1.58;0.60;;;;;10.20;93286.00;;;;7387450;19;20142;-77
2022/12/23 10:41:15;;;;;;;0.60;0.57;;;;;10.20;93282.00;;;;7388029;19;20148;-76
2022/12/23 10:44:13;;;;;;;0.43;0.43;;;;;10.20;93266.00;;;;7389487;19;20177;-78
2022/12/23 10:47:08;;;;;;;0.35;0.35;;;;;10.30;93266.00;;;;7390479;19;20607;-77
2022/12/23 10:50:11;;;;;;;0.50;0.40;;;;;10.40;93264.00;;;;7388508;19;20172;-76
2022/12/23 10:52:47;;;;;;;0.47;0.47;;;;;10.40;93266.00;;;;7386999;19;21189;-78
2022/12/23 10:55:25;;;;;;;0.82;0.50;;;;;10.40;93264.00;;;;7388419;19;20147;-77
2022/12/23 10:58:17;;;;;;;0.40;0.40;;;;;10.40;93261.00;;;;7390812;19;20170;-78
2022/12/23 11:00:51;;;;;;;0.50;0.40;;;;;10.30;93256.00;;;;7395095;19;20156;-81
2022/12/23 11:03:41;;;;;;;0.30;0.30;;;;;10.40;93262.00;;;;7394162;19;20125;-79
2022/12/23 11:06:11;;;;;;;1.15;0.38;;;;;10.40;93243.00;;;;7393869;19;20184;-79
2022/12/23 11:08:46;;;;;;;0.52;0.50;;;;;10.60;93248.00;;;;7391809;19;20179;-78
2022/12/23 11:11:14;;;;;;;1.33;0.40;;;;;10.60;93256.00;;;;7391446;19;20208;-78
2022/12/23 11:13:44;;;;;;;0.47;0.32;;;;;10.60;93247.00;;;;7394504;19;20153;-78
2022/12/23 11:16:29;;;;;;;2.25;0.38;;;;;10.50;93248.00;;;;7392095;19;20139;-77
2022/12/23 11:19:12;;;;;;;0.35;0.35;;;;;10.60;93237.00;;;;7391249;19;20184;-77
2022/12/23 11:22:01;;;;;;;1.10;0.20;;;;;10.60;93239.00;;;;7388860;19;20165;-77
2022/12/23 11:24:33;;;;;;;1.95;0.45;;;;;10.60;93231.00;;;;7391224;19;20156;-78
2022/12/23 11:27:14;;;;;;;0.30;0.30;;;;;10.40;93240.00;;;;7388043;19;20156;-77
2022/12/23 11:29:59;;;;;;;1.20;0.35;;;;;10.50;93223.00;;;;7387050;19;20212;-77
2022/12/23 11:32:43;;;;;;;0.10;0.10;;;;;10.50;93211.00;;;;7389588;19;20184;-78
2022/12/23 11:35:28;;;;;;;0.38;0.30;;;;;10.50;93207.00;;;;7388995;19;20836;-77
2022/12/23 11:38:11;;;;;;;1.58;0.40;;;;;10.40;93203.00;;;;7389990;19;20209;-78
2022/12/23 11:40:39;;;;;;;0.40;0.30;;;;;10.30;93215.00;;;;7390622;19;20144;-78
2022/12/23 11:43:17;;;;;;;0.65;0.40;;;;;10.40;93211.00;;;;7390848;19;20500;-77
2022/12/23 11:45:45;;;;;;;0.57;0.38;;;;;10.50;93211.00;;;;7391360;19;20144;-78
2022/12/23 11:48:29;;;;;;;0.45;0.40;;;;;10.40;93204.00;;;;7389708;19;20164;-77
2022/12/23 11:51:04;;;;;;;0.30;0.30;;;;;10.30;93196.00;;;;7388182;19;20181;-78
2022/12/23 11:53:35;;;;;;;1.08;0.60;;;;;10.30;93178.00;;;;7388281;19;20145;-77
2022/12/23 11:56:13;;;;;;;5.10;1.30;;;;;10.30;93183.00;;;;7384305;19;20797;-77
2022/12/23 11:58:56;;;;;;;1.45;1.20;;;;;10.40;93176.00;;;;7384760;19;20484;-77
2022/12/23 12:01:25;;;;;;;1.73;1.30;;;;;10.40;93174.00;;;;7387459;19;20143;-77
2022/12/23 12:04:22;;;;;;;2.03;1.40;;;;;10.40;93163.00;;;;7386405;19;20503;-79
2022/12/23 12:06:51;;;;;;;4.72;1.80;;;;;10.40;93157.00;;;;7386332;19;20176;-78
2022/12/23 12:09:30;;;;;;;2.53;1.80;;;;;10.30;93142.00;;;;7384972;19;20507;-75
2022/12/23 12:12:05;;;;;;;1.95;1.80;;;;;10.30;93142.00;;;;7384427;19;20252;-78
2022/12/23 12:14:54;;;;;;;2.08;1.70;;;;;10.40;93141.00;;;;7386180;19;20136;-76
2022/12/23 12:17:58;;;;;;;3.78;1.80;;;;;10.20;93138.00;;;;7383565;19;20153;-77
2022/12/23 12:20:54;;;;;;;2.17;1.65;;;;;10.30;93120.00;;;;7383313;19;20175;-75
2022/12/23 12:23:53;;;;;;;2.25;1.80;;;;;10.20;93121.00;;;;7385503;19;20179;-77
2022/12/23 12:26:49;;;;;;;2.50;1.90;;;;;10.30;93114.00;;;;7385425;19;20157;-77
2022/12/23 12:29:46;;;;;;;7.15;2.03;;;;;10.30;93108.00;;;;7385406;19;20133;-76
2022/12/23 12:32:41;;;;;;;2.22;1.92;;;;;10.30;93105.00;;;;7384503;19;20151;-75
2022/12/23 12:35:23;;;;;;;18.00;2.63;;;;;10.50;93119.00;;;;7383127;19;20144;-75
2022/12/23 12:38:03;;;;;;;7.13;1.88;;;;;10.30;93101.00;;;;7384553;19;21160;-77
2022/12/23 12:40:58;;;;;;;7.68;1.83;;;;;10.30;93115.00;;;;7385084;19;21007;-77
2022/12/23 12:43:39;;;;;;;3.47;1.52;;;;;10.30;93106.00;;;;7384218;19;20152;-75
2022/12/23 12:46:42;;;;;;;1.60;1.30;;;;;10.40;93099.00;;;;7382834;19;20561;-77
2022/12/23 12:49:29;;;;;;;1.25;1.08;;;;;10.60;93101.00;;;;7386799;19;20135;-75
2022/12/23 12:52:20;;;;;;;1.58;1.48;;;;;10.50;93090.00;;;;7384490;19;20135;-76
2022/12/23 12:54:54;;;;;;;3.45;2.10;;;;;10.40;93085.00;;;;7382876;19;20192;-75
2022/12/23 12:57:23;;;;;;;4.50;1.88;;;;;10.40;93082.00;;;;7383292;19;20481;-75
2022/12/23 12:59:54;;;;;;;2.10;1.75;;;;;10.30;93088.00;;;;7385962;19;20199;-76
2022/12/23 13:03:11;;;;;;;1.60;1.48;;;;;10.40;93076.00;;;;7385239;19;20136;-75
2022/12/23 13:06:12;;;;;;;2.33;1.40;;;;;10.50;93072.00;;;;7385732;19;20132;-77
2022/12/23 13:09:09;;;;;;;2.58;1.40;;;;;10.40;93080.00;;;;7387823;19;20216;-77
2022/12/23 13:11:56;;;;;;;2.30;0.82;;;;;10.50;93077.00;;;;7391914;19;20644;-78
2022/12/23 13:14:52;;;;;;;0.80;0.63;;;;;10.50;93082.00;;;;7389053;19;20149;-78
2022/12/23 13:17:41;;;;;;;1.52;1.13;;;;;10.50;93082.00;;;;7390384;19;20129;-76
2022/12/23 13:20:30;;;;;;;0.60;0.50;;;;;10.60;93082.00;;;;7387151;19;21056;-77
2022/12/23 13:23:05;;;;;;;0.45;0.43;;;;;10.60;93073.00;;;;7393129;19;20144;-77
2022/12/23 13:26:08;;;;;;;0.60;0.60;;;;;10.60;93067.00;;;;7392018;19;20158;-77
2022/12/23 13:28:47;;;;;;;0.95;0.50;;;;;10.60;93068.00;;;;7390190;19;20148;-76
2022/12/23 13:31:46;;;;;;;1.25;0.55;;;;;10.60;93072.00;;;;7388837;19;20224;-76
2022/12/23 13:34:40;;;;;;;0.60;0.60;;;;;10.70;93074.00;;;;7391551;19;20208;-76
2022/12/23 13:37:46;;;;;;;0.43;0.40;;;;;10.70;93067.00;;;;7389078;19;20595;-78
2022/12/23 13:40:38;;;;;;;0.45;0.45;;;;;10.50;93070.00;;;;7388408;19;20153;-75
2022/12/23 13:43:19;;;;;;;0.50;0.50;;;;;10.60;93068.00;;;;7387705;19;20160;-76